sensor_id;sensor_type;location;lat;lon;timestamp;P1;durP1;ratioP1;P2;durP2;ratioP2
2622;SDS011;1321;48.690;9.022;2022-07-29T00:01:19;3.43;;;3.23;;
2622;SDS011;1321;48.690;9.022;2022-07-29T00:03:47;3.57;;;3.37;;
2622;SDS011;1321;48.690;9.022;2022-07-29T00:06:15;3.73;;;3.53;;
2622;SDS011;1321;48.690;9.022;2022-07-29T00:08:43;2.87;;;2.67;;
2622;SDS011;1321;48.690;9.022;2022-07-29T00:11:11;3.97;;;3.70;;
2622;SDS011;1321;48.690;9.022;2022-07-29T00:13:40;4.27;;;3.40;;
2622;SDS011;1321;48.690;9.022;2022-07-29T00:16:15;3.83;;;2.97;;
2622;SDS011;1321;48.690;9.022;2022-07-29T00:18:43;3.17;;;2.90;;
2622;SDS011;1321;48.690;9.022;2022-07-29T00:21:12;4.20;;;3.90;;
2622;SDS011;1321;48.690;9.022;2022-07-29T00:23:40;3.50;;;3.30;;
2622;SDS011;1321;48.690;9.022;2022-07-29T00:26:08;3.67;;;3.17;;
2622;SDS011;1321;48.690;9.022;2022-07-29T00:28:36;3.37;;;3.17;;
2622;SDS011;1321;48.690;9.022;2022-07-29T00:31:04;3.63;;;3.43;;
2622;SDS011;1321;48.690;9.022;2022-07-29T00:33:35;2.90;;;2.70;;
2622;SDS011;1321;48.690;9.022;2022-07-29T00:36:04;3.50;;;3.30;;
2622;SDS011;1321;48.690;9.022;2022-07-29T00:38:31;3.40;;;3.10;;
2622;SDS011;1321;48.690;9.022;2022-07-29T00:40:59;3.17;;;2.87;;
2622;SDS011;1321;48.690;9.022;2022-07-29T00:43:27;2.80;;;2.60;;
2622;SDS011;1321;48.690;9.022;2022-07-29T00:45:55;3.60;;;2.90;;
2622;SDS011;1321;48.690;9.022;2022-07-29T00:48:24;2.90;;;2.80;;
2622;SDS011;1321;48.690;9.022;2022-07-29T00:50:53;3.30;;;3.00;;
2622;SDS011;1321;48.690;9.022;2022-07-29T00:53:22;2.60;;;2.40;;
2622;SDS011;1321;48.690;9.022;2022-07-29T00:55:52;2.70;;;2.50;;
2622;SDS011;1321;48.690;9.022;2022-07-29T00:58:21;2.80;;;2.60;;
2622;SDS011;1321;48.690;9.022;2022-07-29T01:00:49;3.07;;;2.63;;
2622;SDS011;1321;48.690;9.022;2022-07-29T01:03:18;3.10;;;2.70;;
2622;SDS011;1321;48.690;9.022;2022-07-29T01:05:46;3.40;;;2.57;;
2622;SDS011;1321;48.690;9.022;2022-07-29T01:08:18;2.77;;;2.57;;
2622;SDS011;1321;48.690;9.022;2022-07-29T01:10:47;2.90;;;2.70;;
2622;SDS011;1321;48.690;9.022;2022-07-29T01:13:16;2.87;;;2.67;;
2622;SDS011;1321;48.690;9.022;2022-07-29T01:15:46;3.17;;;2.97;;
2622;SDS011;1321;48.690;9.022;2022-07-29T01:18:20;3.93;;;2.30;;
2622;SDS011;1321;48.690;9.022;2022-07-29T01:20:56;2.47;;;2.27;;
2622;SDS011;1321;48.690;9.022;2022-07-29T01:23:48;3.47;;;2.70;;
2622;SDS011;1321;48.690;9.022;2022-07-29T01:26:33;2.83;;;2.63;;
2622;SDS011;1321;48.690;9.022;2022-07-29T01:29:12;2.67;;;2.47;;
2622;SDS011;1321;48.690;9.022;2022-07-29T01:31:47;3.50;;;2.40;;
2622;SDS011;1321;48.690;9.022;2022-07-29T01:34:28;2.97;;;2.77;;
2622;SDS011;1321;48.690;9.022;2022-07-29T01:37:08;3.53;;;2.67;;
2622;SDS011;1321;48.690;9.022;2022-07-29T01:39:45;2.67;;;2.47;;
2622;SDS011;1321;48.690;9.022;2022-07-29T01:42:20;2.73;;;2.53;;
2622;SDS011;1321;48.690;9.022;2022-07-29T01:44:56;3.00;;;2.90;;
2622;SDS011;1321;48.690;9.022;2022-07-29T01:47:29;2.67;;;2.47;;
2622;SDS011;1321;48.690;9.022;2022-07-29T01:50:02;2.80;;;2.60;;
2622;SDS011;1321;48.690;9.022;2022-07-29T01:52:36;3.90;;;3.53;;
2622;SDS011;1321;48.690;9.022;2022-07-29T01:55:11;3.10;;;2.80;;
2622;SDS011;1321;48.690;9.022;2022-07-29T01:57:43;3.00;;;2.60;;
2622;SDS011;1321;48.690;9.022;2022-07-29T02:00:16;2.63;;;2.43;;
2622;SDS011;1321;48.690;9.022;2022-07-29T02:02:45;2.17;;;2.07;;
2622;SDS011;1321;48.690;9.022;2022-07-29T02:05:16;3.70;;;2.87;;
2622;SDS011;1321;48.690;9.022;2022-07-29T02:07:47;2.53;;;2.33;;
2622;SDS011;1321;48.690;9.022;2022-07-29T02:10:17;3.60;;;2.43;;
2622;SDS011;1321;48.690;9.022;2022-07-29T02:12:51;2.50;;;2.40;;
2622;SDS011;1321;48.690;9.022;2022-07-29T02:15:23;3.10;;;2.90;;
2622;SDS011;1321;48.690;9.022;2022-07-29T02:17:53;2.40;;;2.30;;
2622;SDS011;1321;48.690;9.022;2022-07-29T02:20:25;2.70;;;2.60;;
2622;SDS011;1321;48.690;9.022;2022-07-29T02:22:55;2.90;;;2.60;;
2622;SDS011;1321;48.690;9.022;2022-07-29T02:25:24;2.30;;;2.10;;
2622;SDS011;1321;48.690;9.022;2022-07-29T02:28:03;2.90;;;2.70;;
2622;SDS011;1321;48.690;9.022;2022-07-29T02:30:36;2.30;;;2.10;;
2622;SDS011;1321;48.690;9.022;2022-07-29T02:33:07;2.60;;;2.40;;
2622;SDS011;1321;48.690;9.022;2022-07-29T02:35:37;2.73;;;2.53;;
2622;SDS011;1321;48.690;9.022;2022-07-29T02:38:07;2.40;;;2.20;;
2622;SDS011;1321;48.690;9.022;2022-07-29T02:41:03;3.27;;;2.10;;
2622;SDS011;1321;48.690;9.022;2022-07-29T02:43:35;2.50;;;2.10;;
2622;SDS011;1321;48.690;9.022;2022-07-29T02:46:05;2.40;;;1.60;;
2622;SDS011;1321;48.690;9.022;2022-07-29T02:48:56;2.23;;;2.13;;
2622;SDS011;1321;48.690;9.022;2022-07-29T02:51:27;2.13;;;2.00;;
2622;SDS011;1321;48.690;9.022;2022-07-29T02:54:10;2.20;;;2.10;;
2622;SDS011;1321;48.690;9.022;2022-07-29T02:56:42;2.53;;;2.43;;
2622;SDS011;1321;48.690;9.022;2022-07-29T02:59:11;3.67;;;2.47;;
2622;SDS011;1321;48.690;9.022;2022-07-29T03:01:45;2.03;;;1.90;;
2622;SDS011;1321;48.690;9.022;2022-07-29T03:04:14;2.20;;;2.00;;
2622;SDS011;1321;48.690;9.022;2022-07-29T03:06:45;3.63;;;2.73;;
2622;SDS011;1321;48.690;9.022;2022-07-29T03:09:13;3.20;;;2.90;;
2622;SDS011;1321;48.690;9.022;2022-07-29T03:11:42;1.93;;;1.80;;
2622;SDS011;1321;48.690;9.022;2022-07-29T03:14:16;2.70;;;2.50;;
2622;SDS011;1321;48.690;9.022;2022-07-29T03:16:48;2.50;;;2.33;;
2622;SDS011;1321;48.690;9.022;2022-07-29T03:19:18;2.57;;;2.37;;
2622;SDS011;1321;48.690;9.022;2022-07-29T03:21:47;4.60;;;2.30;;
2622;SDS011;1321;48.690;9.022;2022-07-29T03:24:26;2.40;;;2.20;;
2622;SDS011;1321;48.690;9.022;2022-07-29T03:26:55;2.10;;;2.00;;
2622;SDS011;1321;48.690;9.022;2022-07-29T03:29:24;3.00;;;2.80;;
2622;SDS011;1321;48.690;9.022;2022-07-29T03:32:01;2.57;;;2.37;;
2622;SDS011;1321;48.690;9.022;2022-07-29T03:34:33;2.60;;;2.40;;
2622;SDS011;1321;48.690;9.022;2022-07-29T03:37:03;2.83;;;2.63;;
2622;SDS011;1321;48.690;9.022;2022-07-29T03:39:33;2.60;;;2.43;;
2622;SDS011;1321;48.690;9.022;2022-07-29T03:42:03;2.30;;;2.20;;
2622;SDS011;1321;48.690;9.022;2022-07-29T03:44:34;2.20;;;2.00;;
2622;SDS011;1321;48.690;9.022;2022-07-29T03:47:05;2.37;;;2.27;;
2622;SDS011;1321;48.690;9.022;2022-07-29T03:49:35;1.87;;;1.77;;
2622;SDS011;1321;48.690;9.022;2022-07-29T03:52:04;2.20;;;2.00;;
2622;SDS011;1321;48.690;9.022;2022-07-29T03:54:33;2.10;;;2.00;;
2622;SDS011;1321;48.690;9.022;2022-07-29T03:57:01;7.80;;;2.27;;
2622;SDS011;1321;48.690;9.022;2022-07-29T03:59:31;2.10;;;2.00;;
2622;SDS011;1321;48.690;9.022;2022-07-29T04:02:01;2.70;;;2.50;;
2622;SDS011;1321;48.690;9.022;2022-07-29T04:04:33;2.00;;;1.80;;
2622;SDS011;1321;48.690;9.022;2022-07-29T04:07:02;2.03;;;1.93;;
2622;SDS011;1321;48.690;9.022;2022-07-29T04:09:31;2.20;;;2.10;;
2622;SDS011;1321;48.690;9.022;2022-07-29T04:11:59;2.60;;;2.07;;
2622;SDS011;1321;48.690;9.022;2022-07-29T04:14:30;1.97;;;1.87;;
2622;SDS011;1321;48.690;9.022;2022-07-29T04:16:59;2.10;;;2.00;;
2622;SDS011;1321;48.690;9.022;2022-07-29T04:19:27;2.20;;;2.10;;
2622;SDS011;1321;48.690;9.022;2022-07-29T04:21:57;1.93;;;1.73;;
2622;SDS011;1321;48.690;9.022;2022-07-29T04:24:26;1.77;;;1.67;;
2622;SDS011;1321;48.690;9.022;2022-07-29T04:26:54;1.87;;;1.70;;
2622;SDS011;1321;48.690;9.022;2022-07-29T04:29:22;2.00;;;1.60;;
2622;SDS011;1321;48.690;9.022;2022-07-29T04:31:50;1.57;;;1.47;;
2622;SDS011;1321;48.690;9.022;2022-07-29T04:34:19;2.00;;;1.90;;
2622;SDS011;1321;48.690;9.022;2022-07-29T04:36:47;1.73;;;1.63;;
2622;SDS011;1321;48.690;9.022;2022-07-29T04:39:16;1.80;;;1.60;;
2622;SDS011;1321;48.690;9.022;2022-07-29T04:41:48;2.33;;;2.07;;
2622;SDS011;1321;48.690;9.022;2022-07-29T04:44:20;1.63;;;1.53;;
2622;SDS011;1321;48.690;9.022;2022-07-29T04:46:54;1.50;;;1.40;;
2622;SDS011;1321;48.690;9.022;2022-07-29T04:49:23;1.50;;;1.40;;
2622;SDS011;1321;48.690;9.022;2022-07-29T04:51:51;1.70;;;1.60;;
2622;SDS011;1321;48.690;9.022;2022-07-29T04:54:21;1.70;;;1.60;;
2622;SDS011;1321;48.690;9.022;2022-07-29T04:56:51;1.90;;;1.70;;
2622;SDS011;1321;48.690;9.022;2022-07-29T04:59:19;1.50;;;1.40;;
2622;SDS011;1321;48.690;9.022;2022-07-29T05:01:48;2.00;;;1.90;;
2622;SDS011;1321;48.690;9.022;2022-07-29T05:04:16;1.70;;;1.60;;
2622;SDS011;1321;48.690;9.022;2022-07-29T05:06:45;1.90;;;1.77;;
2622;SDS011;1321;48.690;9.022;2022-07-29T05:09:13;2.00;;;1.90;;
2622;SDS011;1321;48.690;9.022;2022-07-29T05:11:43;2.13;;;2.00;;
2622;SDS011;1321;48.690;9.022;2022-07-29T05:14:11;1.53;;;1.43;;
2622;SDS011;1321;48.690;9.022;2022-07-29T05:16:41;1.77;;;1.67;;
2622;SDS011;1321;48.690;9.022;2022-07-29T05:19:09;1.90;;;1.80;;
2622;SDS011;1321;48.690;9.022;2022-07-29T05:21:40;2.10;;;1.70;;
2622;SDS011;1321;48.690;9.022;2022-07-29T05:24:08;3.20;;;1.50;;
2622;SDS011;1321;48.690;9.022;2022-07-29T05:26:36;1.70;;;1.60;;
2622;SDS011;1321;48.690;9.022;2022-07-29T05:29:06;1.63;;;1.53;;
2622;SDS011;1321;48.690;9.022;2022-07-29T05:31:54;1.50;;;1.40;;
2622;SDS011;1321;48.690;9.022;2022-07-29T05:34:22;3.77;;;2.67;;
2622;SDS011;1321;48.690;9.022;2022-07-29T05:36:51;1.60;;;1.50;;
2622;SDS011;1321;48.690;9.022;2022-07-29T05:39:19;2.00;;;1.90;;
2622;SDS011;1321;48.690;9.022;2022-07-29T05:42:08;1.80;;;1.70;;
2622;SDS011;1321;48.690;9.022;2022-07-29T05:44:38;3.00;;;1.80;;
2622;SDS011;1321;48.690;9.022;2022-07-29T05:47:06;2.50;;;2.30;;
2622;SDS011;1321;48.690;9.022;2022-07-29T05:49:34;2.10;;;2.00;;
2622;SDS011;1321;48.690;9.022;2022-07-29T05:52:03;2.20;;;2.00;;
2622;SDS011;1321;48.690;9.022;2022-07-29T05:54:31;2.73;;;2.10;;
2622;SDS011;1321;48.690;9.022;2022-07-29T05:56:59;2.00;;;1.80;;
2622;SDS011;1321;48.690;9.022;2022-07-29T05:59:28;2.37;;;2.17;;
2622;SDS011;1321;48.690;9.022;2022-07-29T06:01:57;2.33;;;2.13;;
2622;SDS011;1321;48.690;9.022;2022-07-29T06:04:25;2.13;;;1.93;;
2622;SDS011;1321;48.690;9.022;2022-07-29T06:06:54;3.13;;;2.20;;
2622;SDS011;1321;48.690;9.022;2022-07-29T06:09:22;4.03;;;2.50;;
2622;SDS011;1321;48.690;9.022;2022-07-29T06:11:50;3.30;;;3.00;;
2622;SDS011;1321;48.690;9.022;2022-07-29T06:14:18;3.20;;;2.90;;
2622;SDS011;1321;48.690;9.022;2022-07-29T06:16:47;2.10;;;2.00;;
2622;SDS011;1321;48.690;9.022;2022-07-29T06:19:16;2.53;;;2.20;;
2622;SDS011;1321;48.690;9.022;2022-07-29T06:21:45;3.03;;;2.83;;
2622;SDS011;1321;48.690;9.022;2022-07-29T06:24:14;2.97;;;2.67;;
2622;SDS011;1321;48.690;9.022;2022-07-29T06:26:44;3.13;;;2.60;;
2622;SDS011;1321;48.690;9.022;2022-07-29T06:29:12;2.90;;;2.70;;
2622;SDS011;1321;48.690;9.022;2022-07-29T06:31:40;3.07;;;2.73;;
2622;SDS011;1321;48.690;9.022;2022-07-29T06:34:08;3.57;;;2.77;;
2622;SDS011;1321;48.690;9.022;2022-07-29T06:36:38;3.17;;;2.97;;
2622;SDS011;1321;48.690;9.022;2022-07-29T06:39:06;2.17;;;2.07;;
2622;SDS011;1321;48.690;9.022;2022-07-29T06:41:37;3.43;;;3.10;;
2622;SDS011;1321;48.690;9.022;2022-07-29T06:44:05;2.70;;;2.50;;
2622;SDS011;1321;48.690;9.022;2022-07-29T06:46:33;3.47;;;3.17;;
2622;SDS011;1321;48.690;9.022;2022-07-29T06:49:04;2.70;;;2.33;;
2622;SDS011;1321;48.690;9.022;2022-07-29T06:51:32;3.00;;;2.80;;
2622;SDS011;1321;48.690;9.022;2022-07-29T06:54:01;3.27;;;2.97;;
2622;SDS011;1321;48.690;9.022;2022-07-29T06:56:32;3.40;;;3.20;;
2622;SDS011;1321;48.690;9.022;2022-07-29T06:59:05;3.43;;;3.23;;
2622;SDS011;1321;48.690;9.022;2022-07-29T07:01:34;2.70;;;2.50;;
2622;SDS011;1321;48.690;9.022;2022-07-29T07:04:03;2.97;;;2.73;;
2622;SDS011;1321;48.690;9.022;2022-07-29T07:06:31;5.00;;;3.47;;
2622;SDS011;1321;48.690;9.022;2022-07-29T07:08:59;2.80;;;2.70;;
2622;SDS011;1321;48.690;9.022;2022-07-29T07:11:29;3.23;;;2.93;;
2622;SDS011;1321;48.690;9.022;2022-07-29T07:13:57;2.97;;;2.77;;
2622;SDS011;1321;48.690;9.022;2022-07-29T07:16:29;3.57;;;3.20;;
2622;SDS011;1321;48.690;9.022;2022-07-29T07:18:58;3.10;;;2.90;;
2622;SDS011;1321;48.690;9.022;2022-07-29T07:21:27;2.90;;;2.70;;
2622;SDS011;1321;48.690;9.022;2022-07-29T07:23:56;3.53;;;3.23;;
2622;SDS011;1321;48.690;9.022;2022-07-29T07:26:25;3.93;;;3.60;;
2622;SDS011;1321;48.690;9.022;2022-07-29T07:28:54;2.93;;;2.70;;
2622;SDS011;1321;48.690;9.022;2022-07-29T07:31:22;3.30;;;3.00;;
2622;SDS011;1321;48.690;9.022;2022-07-29T07:33:50;3.10;;;2.90;;
2622;SDS011;1321;48.690;9.022;2022-07-29T07:36:19;3.73;;;3.23;;
2622;SDS011;1321;48.690;9.022;2022-07-29T07:38:48;2.90;;;2.70;;
2622;SDS011;1321;48.690;9.022;2022-07-29T07:41:16;3.17;;;2.87;;
2622;SDS011;1321;48.690;9.022;2022-07-29T07:43:46;4.50;;;2.97;;
2622;SDS011;1321;48.690;9.022;2022-07-29T07:46:14;3.77;;;3.43;;
2622;SDS011;1321;48.690;9.022;2022-07-29T07:48:43;3.47;;;3.27;;
2622;SDS011;1321;48.690;9.022;2022-07-29T07:51:11;3.17;;;2.87;;
2622;SDS011;1321;48.690;9.022;2022-07-29T07:53:39;4.03;;;3.73;;
2622;SDS011;1321;48.690;9.022;2022-07-29T07:56:07;3.60;;;3.40;;
2622;SDS011;1321;48.690;9.022;2022-07-29T07:58:37;3.83;;;3.43;;
2622;SDS011;1321;48.690;9.022;2022-07-29T08:01:07;4.07;;;3.33;;
2622;SDS011;1321;48.690;9.022;2022-07-29T08:03:36;3.73;;;3.30;;
2622;SDS011;1321;48.690;9.022;2022-07-29T08:06:05;3.70;;;3.00;;
2622;SDS011;1321;48.690;9.022;2022-07-29T08:08:33;4.13;;;3.30;;
2622;SDS011;1321;48.690;9.022;2022-07-29T08:11:01;4.53;;;3.30;;
2622;SDS011;1321;48.690;9.022;2022-07-29T08:13:35;3.10;;;2.90;;
2622;SDS011;1321;48.690;9.022;2022-07-29T08:16:04;3.97;;;3.67;;
2622;SDS011;1321;48.690;9.022;2022-07-29T08:18:41;3.93;;;3.60;;
2622;SDS011;1321;48.690;9.022;2022-07-29T08:21:10;3.90;;;3.57;;
2622;SDS011;1321;48.690;9.022;2022-07-29T08:23:40;3.70;;;3.40;;
2622;SDS011;1321;48.690;9.022;2022-07-29T08:26:26;3.30;;;3.10;;
2622;SDS011;1321;48.690;9.022;2022-07-29T08:28:54;4.20;;;3.80;;
2622;SDS011;1321;48.690;9.022;2022-07-29T08:31:22;4.43;;;4.03;;
2622;SDS011;1321;48.690;9.022;2022-07-29T08:33:52;4.10;;;3.80;;
2622;SDS011;1321;48.690;9.022;2022-07-29T08:36:22;3.00;;;2.80;;
2622;SDS011;1321;48.690;9.022;2022-07-29T08:38:51;3.63;;;3.33;;
2622;SDS011;1321;48.690;9.022;2022-07-29T08:41:19;3.70;;;3.50;;
2622;SDS011;1321;48.690;9.022;2022-07-29T08:43:48;3.20;;;3.00;;
2622;SDS011;1321;48.690;9.022;2022-07-29T08:46:17;3.10;;;2.90;;
2622;SDS011;1321;48.690;9.022;2022-07-29T08:48:46;4.43;;;3.83;;
2622;SDS011;1321;48.690;9.022;2022-07-29T08:51:17;3.37;;;3.17;;
2622;SDS011;1321;48.690;9.022;2022-07-29T08:53:46;3.73;;;3.40;;
2622;SDS011;1321;48.690;9.022;2022-07-29T08:56:16;4.20;;;3.53;;
2622;SDS011;1321;48.690;9.022;2022-07-29T08:58:46;4.10;;;3.80;;
2622;SDS011;1321;48.690;9.022;2022-07-29T09:01:23;3.57;;;3.37;;
2622;SDS011;1321;48.690;9.022;2022-07-29T09:04:02;7.57;;;3.53;;
2622;SDS011;1321;48.690;9.022;2022-07-29T09:06:34;3.13;;;2.93;;
2622;SDS011;1321;48.690;9.022;2022-07-29T09:09:04;4.23;;;3.80;;
2622;SDS011;1321;48.690;9.022;2022-07-29T09:11:34;4.00;;;3.70;;
2622;SDS011;1321;48.690;9.022;2022-07-29T09:14:02;6.60;;;3.80;;
2622;SDS011;1321;48.690;9.022;2022-07-29T09:16:48;3.40;;;3.10;;
2622;SDS011;1321;48.690;9.022;2022-07-29T09:19:27;2.97;;;2.77;;
2622;SDS011;1321;48.690;9.022;2022-07-29T09:21:58;3.93;;;3.63;;
2622;SDS011;1321;48.690;9.022;2022-07-29T09:24:40;2.80;;;2.60;;
2622;SDS011;1321;48.690;9.022;2022-07-29T09:27:10;3.20;;;3.00;;
2622;SDS011;1321;48.690;9.022;2022-07-29T09:29:46;3.67;;;3.10;;
2622;SDS011;1321;48.690;9.022;2022-07-29T09:32:14;3.27;;;3.07;;
2622;SDS011;1321;48.690;9.022;2022-07-29T09:34:42;3.13;;;2.93;;
2622;SDS011;1321;48.690;9.022;2022-07-29T09:37:12;5.67;;;4.40;;
2622;SDS011;1321;48.690;9.022;2022-07-29T09:39:53;6.00;;;4.50;;
2622;SDS011;1321;48.690;9.022;2022-07-29T09:42:27;3.50;;;3.30;;
2622;SDS011;1321;48.690;9.022;2022-07-29T09:44:58;4.30;;;3.60;;
2622;SDS011;1321;48.690;9.022;2022-07-29T09:47:39;3.13;;;2.93;;
2622;SDS011;1321;48.690;9.022;2022-07-29T09:50:11;3.30;;;3.10;;
2622;SDS011;1321;48.690;9.022;2022-07-29T09:52:45;3.60;;;3.40;;
2622;SDS011;1321;48.690;9.022;2022-07-29T09:55:15;3.63;;;3.33;;
2622;SDS011;1321;48.690;9.022;2022-07-29T09:57:45;4.17;;;3.87;;
2622;SDS011;1321;48.690;9.022;2022-07-29T10:00:15;3.47;;;3.27;;
2622;SDS011;1321;48.690;9.022;2022-07-29T10:02:45;4.70;;;3.27;;
2622;SDS011;1321;48.690;9.022;2022-07-29T10:05:19;3.30;;;3.10;;
2622;SDS011;1321;48.690;9.022;2022-07-29T10:07:50;4.00;;;3.70;;
2622;SDS011;1321;48.690;9.022;2022-07-29T10:10:23;4.00;;;3.70;;
2622;SDS011;1321;48.690;9.022;2022-07-29T10:12:53;4.37;;;3.97;;
2622;SDS011;1321;48.690;9.022;2022-07-29T10:15:23;4.27;;;3.97;;
2622;SDS011;1321;48.690;9.022;2022-07-29T10:17:53;4.00;;;3.60;;
2622;SDS011;1321;48.690;9.022;2022-07-29T10:20:22;3.87;;;3.50;;
2622;SDS011;1321;48.690;9.022;2022-07-29T10:22:52;3.30;;;3.10;;
2622;SDS011;1321;48.690;9.022;2022-07-29T10:25:22;3.50;;;3.20;;
2622;SDS011;1321;48.690;9.022;2022-07-29T10:27:51;3.63;;;3.43;;
2622;SDS011;1321;48.690;9.022;2022-07-29T10:30:21;7.80;;;3.73;;
2622;SDS011;1321;48.690;9.022;2022-07-29T10:32:56;4.27;;;3.93;;
2622;SDS011;1321;48.690;9.022;2022-07-29T10:35:54;5.20;;;3.80;;
2622;SDS011;1321;48.690;9.022;2022-07-29T10:41:31;4.67;;;3.13;;
2622;SDS011;1321;48.690;9.022;2022-07-29T10:44:16;4.40;;;4.00;;
2622;SDS011;1321;48.690;9.022;2022-07-29T10:46:49;3.80;;;3.27;;
2622;SDS011;1321;48.690;9.022;2022-07-29T10:49:20;4.40;;;4.00;;
2622;SDS011;1321;48.690;9.022;2022-07-29T10:51:52;7.30;;;4.10;;
2622;SDS011;1321;48.690;9.022;2022-07-29T10:54:37;7.40;;;4.80;;
2622;SDS011;1321;48.690;9.022;2022-07-29T11:00:29;4.73;;;4.30;;
2622;SDS011;1321;48.690;9.022;2022-07-29T11:02:59;5.03;;;4.63;;
2622;SDS011;1321;48.690;9.022;2022-07-29T11:05:52;5.60;;;4.83;;
2622;SDS011;1321;48.690;9.022;2022-07-29T11:08:25;4.80;;;4.33;;
2622;SDS011;1321;48.690;9.022;2022-07-29T11:14:04;4.77;;;4.37;;
2622;SDS011;1321;48.690;9.022;2022-07-29T11:19:33;5.67;;;4.20;;
2622;SDS011;1321;48.690;9.022;2022-07-29T11:22:32;7.10;;;3.03;;
2622;SDS011;1321;48.690;9.022;2022-07-29T11:28:08;3.97;;;3.67;;
2622;SDS011;1321;48.690;9.022;2022-07-29T11:30:50;3.80;;;3.43;;
2622;SDS011;1321;48.690;9.022;2022-07-29T11:33:26;3.77;;;3.43;;
2622;SDS011;1321;48.690;9.022;2022-07-29T11:36:16;3.37;;;2.63;;
2622;SDS011;1321;48.690;9.022;2022-07-29T11:38:53;3.23;;;3.03;;
2622;SDS011;1321;48.690;9.022;2022-07-29T11:45:10;5.13;;;3.73;;
2622;SDS011;1321;48.690;9.022;2022-07-29T11:48:02;4.53;;;3.00;;
2622;SDS011;1321;48.690;9.022;2022-07-29T11:50:52;3.00;;;2.57;;
2622;SDS011;1321;48.690;9.022;2022-07-29T11:53:23;4.40;;;4.00;;
2622;SDS011;1321;48.690;9.022;2022-07-29T11:55:57;4.00;;;3.60;;
2622;SDS011;1321;48.690;9.022;2022-07-29T11:58:28;3.00;;;2.70;;
2622;SDS011;1321;48.690;9.022;2022-07-29T12:00:57;3.67;;;3.37;;
2622;SDS011;1321;48.690;9.022;2022-07-29T12:03:32;3.77;;;3.47;;
2622;SDS011;1321;48.690;9.022;2022-07-29T12:06:02;3.43;;;3.23;;
2622;SDS011;1321;48.690;9.022;2022-07-29T12:08:39;2.90;;;2.70;;
2622;SDS011;1321;48.690;9.022;2022-07-29T12:11:19;3.30;;;3.10;;
2622;SDS011;1321;48.690;9.022;2022-07-29T12:13:49;4.20;;;2.90;;
2622;SDS011;1321;48.690;9.022;2022-07-29T12:16:18;3.43;;;3.13;;
2622;SDS011;1321;48.690;9.022;2022-07-29T12:18:57;3.13;;;2.93;;
2622;SDS011;1321;48.690;9.022;2022-07-29T12:21:27;3.57;;;3.37;;
2622;SDS011;1321;48.690;9.022;2022-07-29T12:23:56;3.50;;;3.30;;
2622;SDS011;1321;48.690;9.022;2022-07-29T12:26:34;3.13;;;2.93;;
2622;SDS011;1321;48.690;9.022;2022-07-29T12:29:05;3.73;;;3.43;;
2622;SDS011;1321;48.690;9.022;2022-07-29T12:31:40;3.67;;;3.30;;
2622;SDS011;1321;48.690;9.022;2022-07-29T12:34:12;3.80;;;3.50;;
2622;SDS011;1321;48.690;9.022;2022-07-29T12:36:42;4.00;;;3.20;;
2622;SDS011;1321;48.690;9.022;2022-07-29T12:39:11;3.10;;;2.87;;
2622;SDS011;1321;48.690;9.022;2022-07-29T12:41:39;3.40;;;3.20;;
2622;SDS011;1321;48.690;9.022;2022-07-29T12:44:07;3.40;;;3.10;;
2622;SDS011;1321;48.690;9.022;2022-07-29T12:46:36;2.50;;;2.40;;
2622;SDS011;1321;48.690;9.022;2022-07-29T12:49:04;3.10;;;2.90;;
2622;SDS011;1321;48.690;9.022;2022-07-29T12:51:35;3.90;;;3.60;;
2622;SDS011;1321;48.690;9.022;2022-07-29T12:54:05;3.23;;;2.70;;
2622;SDS011;1321;48.690;9.022;2022-07-29T12:56:36;3.33;;;2.97;;
2622;SDS011;1321;48.690;9.022;2022-07-29T12:59:17;3.87;;;3.57;;
2622;SDS011;1321;48.690;9.022;2022-07-29T13:01:47;6.00;;;3.80;;
2622;SDS011;1321;48.690;9.022;2022-07-29T13:04:26;4.63;;;4.23;;
2622;SDS011;1321;48.690;9.022;2022-07-29T13:06:59;3.70;;;3.40;;
2622;SDS011;1321;48.690;9.022;2022-07-29T13:09:37;3.10;;;2.80;;
2622;SDS011;1321;48.690;9.022;2022-07-29T13:12:07;5.47;;;3.13;;
2622;SDS011;1321;48.690;9.022;2022-07-29T13:14:37;7.90;;;3.90;;
2622;SDS011;1321;48.690;9.022;2022-07-29T13:17:07;4.10;;;3.80;;
2622;SDS011;1321;48.690;9.022;2022-07-29T13:19:37;3.80;;;3.50;;
2622;SDS011;1321;48.690;9.022;2022-07-29T13:22:09;4.60;;;4.20;;
2622;SDS011;1321;48.690;9.022;2022-07-29T13:24:48;3.80;;;3.50;;
2622;SDS011;1321;48.690;9.022;2022-07-29T13:27:18;4.83;;;4.10;;
2622;SDS011;1321;48.690;9.022;2022-07-29T13:29:47;4.33;;;4.03;;
2622;SDS011;1321;48.690;9.022;2022-07-29T13:32:17;3.90;;;3.60;;
2622;SDS011;1321;48.690;9.022;2022-07-29T13:34:54;5.20;;;4.80;;
2622;SDS011;1321;48.690;9.022;2022-07-29T13:37:25;5.20;;;4.80;;
2622;SDS011;1321;48.690;9.022;2022-07-29T13:39:56;4.40;;;4.10;;
2622;SDS011;1321;48.690;9.022;2022-07-29T13:42:25;4.83;;;3.60;;
2622;SDS011;1321;48.690;9.022;2022-07-29T13:44:54;4.77;;;4.43;;
2622;SDS011;1321;48.690;9.022;2022-07-29T13:47:22;6.20;;;4.90;;
2622;SDS011;1321;48.690;9.022;2022-07-29T13:49:58;4.73;;;4.40;;
2622;SDS011;1321;48.690;9.022;2022-07-29T13:52:28;5.57;;;4.80;;
2622;SDS011;1321;48.690;9.022;2022-07-29T13:54:57;5.93;;;5.27;;
2622;SDS011;1321;48.690;9.022;2022-07-29T13:57:25;4.90;;;4.53;;
2622;SDS011;1321;48.690;9.022;2022-07-29T13:59:53;5.03;;;4.63;;
2622;SDS011;1321;48.690;9.022;2022-07-29T14:02:21;5.43;;;4.93;;
2622;SDS011;1321;48.690;9.022;2022-07-29T14:04:51;4.70;;;4.30;;
2622;SDS011;1321;48.690;9.022;2022-07-29T14:07:20;5.40;;;5.07;;
2622;SDS011;1321;48.690;9.022;2022-07-29T14:09:50;5.60;;;5.10;;
2622;SDS011;1321;48.690;9.022;2022-07-29T14:12:18;5.07;;;4.67;;
2622;SDS011;1321;48.690;9.022;2022-07-29T14:14:47;4.60;;;4.33;;
2622;SDS011;1321;48.690;9.022;2022-07-29T14:17:15;5.10;;;4.73;;
2622;SDS011;1321;48.690;9.022;2022-07-29T14:19:43;5.27;;;4.87;;
2622;SDS011;1321;48.690;9.022;2022-07-29T14:22:11;4.77;;;4.30;;
2622;SDS011;1321;48.690;9.022;2022-07-29T14:24:40;5.43;;;4.83;;
2622;SDS011;1321;48.690;9.022;2022-07-29T14:27:09;6.03;;;5.30;;
2622;SDS011;1321;48.690;9.022;2022-07-29T14:29:38;4.53;;;4.23;;
2622;SDS011;1321;48.690;9.022;2022-07-29T14:32:06;6.43;;;5.23;;
2622;SDS011;1321;48.690;9.022;2022-07-29T14:34:37;4.83;;;4.43;;
2622;SDS011;1321;48.690;9.022;2022-07-29T14:37:06;5.40;;;4.90;;
2622;SDS011;1321;48.690;9.022;2022-07-29T14:39:41;4.83;;;4.53;;
2622;SDS011;1321;48.690;9.022;2022-07-29T14:42:10;4.83;;;4.40;;
2622;SDS011;1321;48.690;9.022;2022-07-29T14:44:39;4.70;;;4.30;;
2622;SDS011;1321;48.690;9.022;2022-07-29T14:47:09;5.10;;;4.70;;
2622;SDS011;1321;48.690;9.022;2022-07-29T14:49:38;4.90;;;4.50;;
2622;SDS011;1321;48.690;9.022;2022-07-29T14:52:06;6.40;;;5.90;;
2622;SDS011;1321;48.690;9.022;2022-07-29T14:54:34;6.63;;;5.10;;
2622;SDS011;1321;48.690;9.022;2022-07-29T14:57:02;4.93;;;4.27;;
2622;SDS011;1321;48.690;9.022;2022-07-29T14:59:32;5.13;;;4.73;;
2622;SDS011;1321;48.690;9.022;2022-07-29T15:02:00;5.63;;;4.50;;
2622;SDS011;1321;48.690;9.022;2022-07-29T15:04:29;5.50;;;5.00;;
2622;SDS011;1321;48.690;9.022;2022-07-29T15:06:57;5.83;;;5.27;;
2622;SDS011;1321;48.690;9.022;2022-07-29T15:09:26;4.60;;;4.20;;
2622;SDS011;1321;48.690;9.022;2022-07-29T15:11:54;5.33;;;4.83;;
2622;SDS011;1321;48.690;9.022;2022-07-29T15:14:23;5.10;;;4.70;;
2622;SDS011;1321;48.690;9.022;2022-07-29T15:16:53;5.23;;;4.83;;
2622;SDS011;1321;48.690;9.022;2022-07-29T15:19:21;4.70;;;4.40;;
2622;SDS011;1321;48.690;9.022;2022-07-29T15:21:49;5.10;;;4.70;;
2622;SDS011;1321;48.690;9.022;2022-07-29T15:24:19;4.83;;;4.53;;
2622;SDS011;1321;48.690;9.022;2022-07-29T15:26:47;5.03;;;4.60;;
2622;SDS011;1321;48.690;9.022;2022-07-29T15:29:15;5.67;;;5.27;;
2622;SDS011;1321;48.690;9.022;2022-07-29T15:31:44;5.60;;;5.20;;
2622;SDS011;1321;48.690;9.022;2022-07-29T15:34:13;4.77;;;4.43;;
2622;SDS011;1321;48.690;9.022;2022-07-29T15:36:41;4.50;;;4.20;;
2622;SDS011;1321;48.690;9.022;2022-07-29T15:39:19;4.57;;;4.27;;
2622;SDS011;1321;48.690;9.022;2022-07-29T15:41:47;4.33;;;4.03;;
2622;SDS011;1321;48.690;9.022;2022-07-29T15:44:16;4.70;;;4.40;;
2622;SDS011;1321;48.690;9.022;2022-07-29T15:46:44;5.27;;;4.87;;
2622;SDS011;1321;48.690;9.022;2022-07-29T15:49:33;5.63;;;5.30;;
2622;SDS011;1321;48.690;9.022;2022-07-29T15:52:15;5.13;;;4.70;;
2622;SDS011;1321;48.690;9.022;2022-07-29T15:54:51;4.80;;;4.50;;
2622;SDS011;1321;48.690;9.022;2022-07-29T15:57:21;5.83;;;5.33;;
2622;SDS011;1321;48.690;9.022;2022-07-29T15:59:50;4.47;;;4.13;;